PWSweather.com
Personal Weather Stations
Station Observations
KMDPASAD2
Rock Creek Estates, Pasadena, MD 21122

Rock Creek EstatesPasadena, MD 21122

Lat: 39.153331, Lon: -76.495379

Elevation: 22

Station Type: Ambient WS2080

http://k3bay.com

Latest ConditionsUpdated 7:20:01 AM EDT Saturday, Jul 21, 2018
Currently Today's Max Today's Min Today's Average
Temperature 73.0°F22.8°C 74.7°F23.7°C 72.1°F22.3°C 73.6°F23.1°C
Dew Point 69.9°F21.1°C 69.9°F21.1°C 64.3°F17.9°C 67.1°F19.5°C
Winds 2.3 mph E3.7 kmh E 8.1 mph -13.0 kmh - - 3.6 mph 5.8 kmh
Wind Gusts 2.3 mph3.7 kmh 8.1 mph13.0 kmh - -
Humidity 90% 90% 72% 80%
Pressure 29.97 in1014.9 mb 30.03 in1016.9 mb 29.97 in1014.9 mb -
Hour Temp Dew Point Humidity Winds Wind Gusts Pressure Precip Precip Rate Daily Precip Total
07:20 AM 73.0°F22.8°C 69.9°F21.1°C 90% 2.3 mph E3.7 kmh E 2.3 mph3.7 kmh 29.97 in1014.9 mb - 0.00 in0.0 mm 0.00 in0.0 mm
07:15 AM 73.0°F22.8°C 69.9°F21.1°C 90% 2.3 mph E3.7 kmh E 2.3 mph3.7 kmh 29.97 in1014.9 mb - 0.00 in0.0 mm 0.00 in0.0 mm
07:10 AM 72.7°F22.6°C 67.9°F19.9°C 85% 2.3 mph E3.7 kmh E 2.3 mph3.7 kmh 29.97 in1014.9 mb - 0.00 in0.0 mm 0.00 in0.0 mm
07:00 AM 72.1°F22.3°C 68.1°F20.1°C 87% 1.2 mph ENE1.9 kmh ENE 1.2 mph1.9 kmh 29.97 in1014.9 mb - 0.00 in0.0 mm 0.00 in0.0 mm
06:55 AM 72.1°F22.3°C 68.1°F20.1°C 87% 1.2 mph ENE1.9 kmh ENE 1.2 mph1.9 kmh 29.97 in1014.9 mb - 0.00 in0.0 mm 0.00 in0.0 mm
06:50 AM 72.3°F22.4°C 67.9°F19.9°C 86% 1.2 mph E1.9 kmh E 1.2 mph1.9 kmh 29.97 in1014.9 mb - 0.00 in0.0 mm 0.00 in0.0 mm
06:45 AM 72.1°F22.3°C 68.1°F20.1°C 87% 1.2 mph ENE1.9 kmh ENE 1.2 mph1.9 kmh 29.97 in1014.9 mb - 0.00 in0.0 mm 0.00 in0.0 mm
06:40 AM 72.7°F22.6°C 67.9°F19.9°C 85% 1.2 mph ENE1.9 kmh ENE 1.2 mph1.9 kmh 29.97 in1014.9 mb - 0.00 in0.0 mm 0.00 in0.0 mm
06:35 AM 72.3°F22.4°C 67.9°F19.9°C 86% Calm Calm -- 29.97 in1014.9 mb - 0.00 in0.0 mm 0.00 in0.0 mm
06:30 AM 72.7°F22.6°C 67.9°F19.9°C 85% 1.2 mph ENE1.9 kmh ENE 1.2 mph1.9 kmh 29.97 in1014.9 mb - 0.00 in0.0 mm 0.00 in0.0 mm
06:25 AM 73.0°F22.8°C 67.9°F19.9°C 84% Calm Calm -- 29.97 in1014.9 mb - 0.00 in0.0 mm 0.00 in0.0 mm
06:20 AM 72.9°F22.7°C 68.1°F20.1°C 85% 1.2 mph E1.9 kmh E 1.2 mph1.9 kmh 29.97 in1014.9 mb - 0.00 in0.0 mm 0.00 in0.0 mm
06:15 AM 72.9°F22.7°C 68.1°F20.1°C 85% 1.2 mph E1.9 kmh E 1.2 mph1.9 kmh 29.97 in1014.9 mb - 0.00 in0.0 mm 0.00 in0.0 mm
06:10 AM 73.2°F22.9°C 68.1°F20.1°C 84% 2.3 mph E3.7 kmh E 2.3 mph3.7 kmh 29.97 in1014.9 mb - 0.00 in0.0 mm 0.00 in0.0 mm
06:00 AM 72.9°F22.7°C 68.1°F20.1°C 85% Calm Calm -- 29.97 in1014.9 mb - 0.00 in0.0 mm 0.00 in0.0 mm
05:55 AM 72.9°F22.7°C 68.1°F20.1°C 85% 1.2 mph ESE1.9 kmh ESE 1.2 mph1.9 kmh 29.97 in1014.9 mb - 0.00 in0.0 mm 0.00 in0.0 mm
05:50 AM 72.9°F22.7°C 68.1°F20.1°C 85% 1.2 mph ESE1.9 kmh ESE 1.2 mph1.9 kmh 29.97 in1014.9 mb - 0.00 in0.0 mm 0.00 in0.0 mm
05:45 AM 72.9°F22.7°C 68.1°F20.1°C 85% 1.2 mph ESE1.9 kmh ESE 1.2 mph1.9 kmh 29.97 in1014.9 mb - 0.00 in0.0 mm 0.00 in0.0 mm
05:40 AM 73.2°F22.9°C 68.1°F20.1°C 84% 2.3 mph E3.7 kmh E 2.3 mph3.7 kmh 29.97 in1014.9 mb - 0.00 in0.0 mm 0.00 in0.0 mm
05:35 AM 72.9°F22.7°C 68.1°F20.1°C 85% 2.3 mph E3.7 kmh E 2.3 mph3.7 kmh 29.97 in1014.9 mb - 0.00 in0.0 mm 0.00 in0.0 mm
05:30 AM 73.2°F22.9°C 68.1°F20.1°C 84% 2.3 mph E3.7 kmh E 2.3 mph3.7 kmh 29.97 in1014.9 mb - 0.00 in0.0 mm 0.00 in0.0 mm
05:25 AM 73.2°F22.9°C 68.1°F20.1°C 84% 2.3 mph E3.7 kmh E 2.3 mph3.7 kmh 29.97 in1014.9 mb - 0.00 in0.0 mm 0.00 in0.0 mm
05:20 AM 73.0°F22.8°C 67.9°F19.9°C 84% 2.3 mph E3.7 kmh E 2.3 mph3.7 kmh 29.97 in1014.9 mb - 0.00 in0.0 mm 0.00 in0.0 mm
05:15 AM 73.4°F23.0°C 67.9°F19.9°C 83% 1.2 mph E1.9 kmh E 1.2 mph1.9 kmh 29.97 in1014.9 mb - 0.00 in0.0 mm 0.00 in0.0 mm
05:10 AM 73.4°F23.0°C 67.9°F19.9°C 83% 1.2 mph E1.9 kmh E 1.2 mph1.9 kmh 29.97 in1014.9 mb - 0.00 in0.0 mm 0.00 in0.0 mm
05:00 AM 73.2°F22.9°C 68.1°F20.1°C 84% 5.8 mph SE9.3 kmh SE 5.8 mph9.3 kmh 30.00 in1015.9 mb - 0.00 in0.0 mm 0.00 in0.0 mm
04:55 AM 73.2°F22.9°C 68.1°F20.1°C 84% 5.8 mph SE9.3 kmh SE 5.8 mph9.3 kmh 30.00 in1015.9 mb - 0.00 in0.0 mm 0.00 in0.0 mm
04:50 AM 73.6°F23.1°C 68.1°F20.1°C 83% 4.6 mph E7.4 kmh E 4.6 mph7.4 kmh 30.00 in1015.9 mb - 0.00 in0.0 mm 0.00 in0.0 mm
04:45 AM 73.6°F23.1°C 68.1°F20.1°C 83% 4.6 mph E7.4 kmh E 4.6 mph7.4 kmh 30.00 in1015.9 mb - 0.00 in0.0 mm 0.00 in0.0 mm
04:40 AM 73.6°F23.1°C 68.1°F20.1°C 83% 1.2 mph ESE1.9 kmh ESE 1.2 mph1.9 kmh 30.00 in1015.9 mb - 0.00 in0.0 mm 0.00 in0.0 mm
04:35 AM 73.6°F23.1°C 68.1°F20.1°C 83% 1.2 mph ESE1.9 kmh ESE 1.2 mph1.9 kmh 30.00 in1015.9 mb - 0.00 in0.0 mm 0.00 in0.0 mm
04:30 AM 73.4°F23.0°C 67.9°F19.9°C 83% 3.5 mph SSE5.6 kmh SSE 3.5 mph5.6 kmh 30.00 in1015.9 mb - 0.00 in0.0 mm 0.00 in0.0 mm
04:25 AM 73.4°F23.0°C 66.1°F18.9°C 78% Calm Calm -- 30.00 in1015.9 mb - 0.00 in0.0 mm 0.00 in0.0 mm
04:20 AM 73.6°F23.1°C 66.3°F19.1°C 78% 4.6 mph SSE7.4 kmh SSE 4.6 mph7.4 kmh 30.00 in1015.9 mb - 0.00 in0.0 mm 0.00 in0.0 mm
04:15 AM 73.6°F23.1°C 66.3°F19.1°C 78% 4.6 mph SSE7.4 kmh SSE 4.6 mph7.4 kmh 30.00 in1015.9 mb - 0.00 in0.0 mm 0.00 in0.0 mm
04:10 AM 73.2°F22.9°C 66.3°F19.1°C 79% 1.2 mph ESE1.9 kmh ESE 1.2 mph1.9 kmh 30.00 in1015.9 mb - 0.00 in0.0 mm 0.00 in0.0 mm
04:00 AM 73.6°F23.1°C 68.1°F20.1°C 83% 3.5 mph SE5.6 kmh SE 3.5 mph5.6 kmh 30.00 in1015.9 mb - 0.00 in0.0 mm 0.00 in0.0 mm
03:55 AM 73.6°F23.1°C 68.1°F20.1°C 83% 3.5 mph SE5.6 kmh SE 3.5 mph5.6 kmh 30.00 in1015.9 mb - 0.00 in0.0 mm 0.00 in0.0 mm
03:50 AM 73.6°F23.1°C 68.1°F20.1°C 83% 2.3 mph ESE3.7 kmh ESE 2.3 mph3.7 kmh 30.00 in1015.9 mb - 0.00 in0.0 mm 0.00 in0.0 mm
03:45 AM 73.8°F23.2°C 66.1°F18.9°C 77% 1.2 mph E1.9 kmh E 1.2 mph1.9 kmh 30.00 in1015.9 mb - 0.00 in0.0 mm 0.00 in0.0 mm
03:40 AM 73.9°F23.3°C 68.1°F20.1°C 82% 2.3 mph SSE3.7 kmh SSE 2.3 mph3.7 kmh 30.00 in1015.9 mb - 0.00 in0.0 mm 0.00 in0.0 mm
03:35 AM 73.8°F23.2°C 66.1°F18.9°C 77% 6.9 mph SE11.1 kmh SE 6.9 mph11.1 kmh 30.00 in1015.9 mb - 0.00 in0.0 mm 0.00 in0.0 mm
03:30 AM 73.9°F23.3°C 66.3°F19.1°C 77% 4.6 mph SSE7.4 kmh SSE 4.6 mph7.4 kmh 30.00 in1015.9 mb - 0.00 in0.0 mm 0.00 in0.0 mm
03:25 AM 73.9°F23.3°C 66.3°F19.1°C 77% 4.6 mph SSE7.4 kmh SSE 4.6 mph7.4 kmh 30.00 in1015.9 mb - 0.00 in0.0 mm 0.00 in0.0 mm
03:20 AM 74.1°F23.4°C 66.1°F18.9°C 76% 2.3 mph ESE3.7 kmh ESE 2.3 mph3.7 kmh 30.00 in1015.9 mb - 0.00 in0.0 mm 0.00 in0.0 mm
03:15 AM 73.9°F23.3°C 68.1°F20.1°C 82% 8.1 mph SSE13.0 kmh SSE 8.1 mph13.0 kmh 30.00 in1015.9 mb - 0.00 in0.0 mm 0.00 in0.0 mm
03:10 AM 73.9°F23.3°C 68.1°F20.1°C 82% 5.8 mph SSE9.3 kmh SSE 5.8 mph9.3 kmh 30.00 in1015.9 mb - 0.00 in0.0 mm 0.00 in0.0 mm
03:00 AM 73.9°F23.3°C 66.3°F19.1°C 77% 4.6 mph SSE7.4 kmh SSE 4.6 mph7.4 kmh 30.03 in1016.9 mb - 0.00 in0.0 mm 0.00 in0.0 mm
02:55 AM 73.9°F23.3°C 66.3°F19.1°C 77% 3.5 mph SE5.6 kmh SE 3.5 mph5.6 kmh 30.03 in1016.9 mb - 0.00 in0.0 mm 0.00 in0.0 mm
02:50 AM 73.9°F23.3°C 66.3°F19.1°C 77% 4.6 mph SSE7.4 kmh SSE 4.6 mph7.4 kmh 30.03 in1016.9 mb - 0.00 in0.0 mm 0.00 in0.0 mm
02:45 AM 74.1°F23.4°C 66.1°F18.9°C 76% 5.8 mph SE9.3 kmh SE 5.8 mph9.3 kmh 30.03 in1016.9 mb - 0.00 in0.0 mm 0.00 in0.0 mm
02:35 AM 73.9°F23.3°C 66.3°F19.1°C 77% 3.5 mph SE5.6 kmh SE 3.5 mph5.6 kmh 30.03 in1016.9 mb - 0.00 in0.0 mm 0.00 in0.0 mm
02:30 AM 73.9°F23.3°C 68.1°F20.1°C 82% 4.6 mph E7.4 kmh E 4.6 mph7.4 kmh 30.03 in1016.9 mb - 0.00 in0.0 mm 0.00 in0.0 mm
02:25 AM 73.9°F23.3°C 66.3°F19.1°C 77% 3.5 mph SSE5.6 kmh SSE 3.5 mph5.6 kmh 30.03 in1016.9 mb - 0.00 in0.0 mm 0.00 in0.0 mm
02:20 AM 73.9°F23.3°C 68.1°F20.1°C 82% 3.5 mph SE5.6 kmh SE 3.5 mph5.6 kmh 30.03 in1016.9 mb - 0.00 in0.0 mm 0.00 in0.0 mm
02:15 AM 73.9°F23.3°C 66.3°F19.1°C 77% 4.6 mph SSE7.4 kmh SSE 4.6 mph7.4 kmh 30.03 in1016.9 mb - 0.00 in0.0 mm 0.00 in0.0 mm
02:10 AM 73.9°F23.3°C 66.3°F19.1°C 77% 2.3 mph ESE3.7 kmh ESE 2.3 mph3.7 kmh 30.03 in1016.9 mb - 0.00 in0.0 mm 0.00 in0.0 mm
02:00 AM 73.8°F23.2°C 66.1°F18.9°C 77% 3.5 mph SE5.6 kmh SE 3.5 mph5.6 kmh 30.03 in1016.9 mb - 0.00 in0.0 mm 0.00 in0.0 mm
01:55 AM 73.8°F23.2°C 66.1°F18.9°C 77% 3.5 mph SE5.6 kmh SE 3.5 mph5.6 kmh 30.03 in1016.9 mb - 0.00 in0.0 mm 0.00 in0.0 mm
01:50 AM 73.8°F23.2°C 66.1°F18.9°C 77% 3.5 mph SE5.6 kmh SE 3.5 mph5.6 kmh 30.03 in1016.9 mb - 0.00 in0.0 mm 0.00 in0.0 mm
01:45 AM 73.9°F23.3°C 64.3°F17.9°C 72% 4.6 mph SSE7.4 kmh SSE 4.6 mph7.4 kmh 30.03 in1016.9 mb - 0.00 in0.0 mm 0.00 in0.0 mm
01:40 AM 73.9°F23.3°C 66.3°F19.1°C 77% 5.8 mph SE9.3 kmh SE 5.8 mph9.3 kmh 30.03 in1016.9 mb - 0.00 in0.0 mm 0.00 in0.0 mm
01:35 AM 73.9°F23.3°C 66.3°F19.1°C 77% 8.1 mph SSE13.0 kmh SSE 8.1 mph13.0 kmh 30.03 in1016.9 mb - 0.00 in0.0 mm 0.00 in0.0 mm
01:30 AM 73.9°F23.3°C 64.3°F17.9°C 72% 4.6 mph SSE7.4 kmh SSE 4.6 mph7.4 kmh 30.03 in1016.9 mb - 0.00 in0.0 mm 0.00 in0.0 mm
01:25 AM 74.3°F23.5°C 66.2°F19.0°C 76% 5.8 mph SE9.3 kmh SE 5.8 mph9.3 kmh 30.03 in1016.9 mb - 0.00 in0.0 mm 0.00 in0.0 mm
01:20 AM 74.3°F23.5°C 66.2°F19.0°C 76% 5.8 mph SE9.3 kmh SE 5.8 mph9.3 kmh 30.03 in1016.9 mb - 0.00 in0.0 mm 0.00 in0.0 mm
01:15 AM 74.1°F23.4°C 66.1°F18.9°C 76% 5.8 mph SE9.3 kmh SE 5.8 mph9.3 kmh 30.03 in1016.9 mb - 0.00 in0.0 mm 0.00 in0.0 mm
01:10 AM 74.1°F23.4°C 66.1°F18.9°C 76% 8.1 mph SE13.0 kmh SE 8.1 mph13.0 kmh 30.03 in1016.9 mb - 0.00 in0.0 mm 0.00 in0.0 mm
01:00 AM 74.1°F23.4°C 66.1°F18.9°C 76% 5.8 mph SE9.3 kmh SE 5.8 mph9.3 kmh 30.03 in1016.9 mb - 0.00 in0.0 mm 0.00 in0.0 mm
12:55 AM 74.1°F23.4°C 66.1°F18.9°C 76% 5.8 mph SE9.3 kmh SE 5.8 mph9.3 kmh 30.03 in1016.9 mb - 0.00 in0.0 mm 0.00 in0.0 mm
12:50 AM 74.3°F23.5°C 66.2°F19.0°C 76% 5.8 mph SSE9.3 kmh SSE 5.8 mph9.3 kmh 30.03 in1016.9 mb - 0.00 in0.0 mm 0.00 in0.0 mm
12:45 AM 74.3°F23.5°C 66.2°F19.0°C 76% 5.8 mph S9.3 kmh S 5.8 mph9.3 kmh 30.03 in1016.9 mb - 0.00 in0.0 mm 0.00 in0.0 mm
12:40 AM 74.3°F23.5°C 66.2°F19.0°C 76% 5.8 mph SE9.3 kmh SE 5.8 mph9.3 kmh 30.03 in1016.9 mb - 0.00 in0.0 mm 0.00 in0.0 mm
12:35 AM 74.3°F23.5°C 66.2°F19.0°C 76% 5.8 mph S9.3 kmh S 5.8 mph9.3 kmh 30.03 in1016.9 mb - 0.00 in0.0 mm 0.00 in0.0 mm
12:30 AM 74.3°F23.5°C 66.2°F19.0°C 76% 6.9 mph SSE11.1 kmh SSE 6.9 mph11.1 kmh 30.03 in1016.9 mb - 0.00 in0.0 mm 0.00 in0.0 mm
12:25 AM 74.3°F23.5°C 66.2°F19.0°C 76% 4.6 mph SE7.4 kmh SE 4.6 mph7.4 kmh 30.03 in1016.9 mb - 0.00 in0.0 mm 0.00 in0.0 mm
12:20 AM 74.3°F23.5°C 66.2°F19.0°C 76% 6.9 mph S11.1 kmh S 6.9 mph11.1 kmh 30.03 in1016.9 mb - 0.00 in0.0 mm 0.00 in0.0 mm
12:15 AM 74.5°F23.6°C 66.0°F18.9°C 75% 5.8 mph SE9.3 kmh SE 5.8 mph9.3 kmh 30.03 in1016.9 mb - 0.00 in0.0 mm 0.00 in0.0 mm
12:10 AM 74.5°F23.6°C 66.0°F18.9°C 75% 5.8 mph SE9.3 kmh SE 5.8 mph9.3 kmh 30.03 in1016.9 mb - 0.00 in0.0 mm 0.00 in0.0 mm
12:00 AM 74.7°F23.7°C 66.2°F19.0°C 75% 8.1 mph SSE13.0 kmh SSE 8.1 mph13.0 kmh 30.03 in1016.9 mb - 0.00 in0.0 mm 0.00 in0.0 mm